Time;durP1;ratioP1;P1;durP2;ratioP2;P2;SDS_P1;SDS_P2;PMS_P1;PMS_P2;Temp;Humidity;BMP_temperature;BMP_pressure;BME280_temperature;BME280_humidity;BME280_pressure;Samples;Min_cycle;Max_cycle;Signal;HPM_P1;HPM_P2
2022/12/10 00:01:13;;;;;;;33.78;18.98;;;2.30;99.90;;;;;;4944808;28;20216;-84
2022/12/10 00:03:39;;;;;;;28.60;17.77;;;2.30;99.90;;;;;;4934922;28;20243;-84
2022/12/10 00:06:10;;;;;;;35.43;18.83;;;2.30;99.90;;;;;;4944728;28;20200;-84
2022/12/10 00:08:36;;;;;;;35.50;19.85;;;2.30;99.90;;;;;;4941773;28;20456;-85
2022/12/10 00:11:06;;;;;;;36.80;20.47;;;2.20;99.90;;;;;;4942638;28;20180;-88
2022/12/10 00:13:34;;;;;;;36.70;19.17;;;2.20;99.90;;;;;;4958911;28;20208;-83
2022/12/10 00:16:00;;;;;;;41.80;19.95;;;2.20;99.90;;;;;;4966233;28;20189;-84
2022/12/10 00:18:26;;;;;;;33.60;18.67;;;2.20;99.90;;;;;;4952297;28;20200;-86
2022/12/10 00:20:52;;;;;;;39.60;21.80;;;2.10;99.90;;;;;;4957073;28;20176;-84
2022/12/10 00:23:18;;;;;;;36.13;19.63;;;2.10;99.90;;;;;;4943066;28;20224;-83
2022/12/10 00:25:43;;;;;;;31.33;18.20;;;2.10;99.90;;;;;;4950102;28;20209;-87
2022/12/10 00:28:09;;;;;;;34.33;19.20;;;;;;;;;;4944516;28;20203;-86
2022/12/10 00:30:35;;;;;;;35.00;18.73;;;2.10;99.90;;;;;;4953683;28;20299;-86
2022/12/10 00:33:01;;;;;;;32.87;19.67;;;;;;;;;;4946777;28;20531;-82
2022/12/10 00:35:27;;;;;;;29.77;17.85;;;2.20;99.90;;;;;;4943711;28;20805;-84
2022/12/10 00:37:52;;;;;;;32.00;17.60;;;2.10;99.90;;;;;;4944491;28;20212;-83
2022/12/10 00:40:18;;;;;;;29.03;16.43;;;2.10;99.90;;;;;;4961381;28;20189;-82
2022/12/10 00:42:43;;;;;;;31.53;17.60;;;2.00;99.90;;;;;;4956574;28;20181;-83
2022/12/10 00:45:09;;;;;;;33.03;17.43;;;1.70;99.90;;;;;;4948850;28;20187;-87
2022/12/10 00:47:35;;;;;;;38.40;19.67;;;1.70;99.90;;;;;;4942530;28;20228;-88
2022/12/10 00:50:00;;;;;;;30.40;17.67;;;1.60;99.90;;;;;;4963707;28;20822;-85
2022/12/10 00:52:26;;;;;;;35.40;18.20;;;;;;;;;;4939246;28;20286;-83
2022/12/10 00:54:52;;;;;;;32.10;18.63;;;;;;;;;;4954326;28;22226;-84
2022/12/10 00:57:18;;;;;;;35.50;19.30;;;1.70;99.90;;;;;;4933027;28;20470;-81
2022/12/10 00:59:43;;;;;;;40.83;20.27;;;1.60;99.90;;;;;;4956177;28;20452;-83
2022/12/10 01:02:09;;;;;;;36.37;18.10;;;1.50;99.90;;;;;;4943770;28;20192;-86
2022/12/10 01:04:35;;;;;;;43.97;19.83;;;;;;;;;;4945505;28;20589;-84
2022/12/10 01:07:00;;;;;;;39.40;19.63;;;1.70;99.90;;;;;;4937125;28;20213;-86
2022/12/10 01:09:29;;;;;;;33.90;18.80;;;1.80;99.90;;;;;;4946271;28;20538;-82
2022/12/10 01:11:57;;;;;;;32.38;18.42;;;1.80;99.90;;;;;;4959537;28;20183;-84
2022/12/10 01:14:30;;;;;;;39.92;19.10;;;1.80;99.90;;;;;;4961370;28;20177;-84
2022/12/10 01:16:58;;;;;;;36.85;17.50;;;1.90;99.90;;;;;;4961633;28;20727;-84
2022/12/10 01:19:25;;;;;;;36.92;20.38;;;1.80;99.90;;;;;;4961640;28;20196;-79
2022/12/10 01:21:54;;;;;;;34.15;18.92;;;1.80;99.90;;;;;;4948449;28;20188;-86
2022/12/10 01:24:25;;;;;;;43.38;20.30;;;1.80;99.90;;;;;;4954291;28;20184;-84
2022/12/10 01:26:51;;;;;;;36.72;19.70;;;1.80;99.90;;;;;;4945653;28;20208;-87
2022/12/10 01:29:17;;;;;;;47.60;19.25;;;1.80;99.90;;;;;;4952559;28;20193;-82
2022/12/10 01:31:43;;;;;;;42.10;20.50;;;1.80;99.90;;;;;;4941506;28;20208;-82
2022/12/10 01:34:13;;;;;;;38.10;20.30;;;1.80;99.90;;;;;;4933364;28;20185;-86
2022/12/10 01:36:42;;;;;;;34.35;18.55;;;1.80;99.90;;;;;;4947033;28;20447;-81
2022/12/10 01:39:11;;;;;;;37.47;18.83;;;1.80;99.90;;;;;;4946347;28;21813;-84
2022/12/10 01:41:40;;;;;;;36.10;18.88;;;1.70;99.90;;;;;;4936129;28;20692;-83
2022/12/10 01:44:08;;;;;;;33.20;17.30;;;1.70;99.90;;;;;;4924546;28;20243;-81
2022/12/10 01:46:36;;;;;;;35.83;18.70;;;1.80;99.90;;;;;;4948022;28;20205;-85
2022/12/10 01:49:07;;;;;;;34.38;16.85;;;2.40;99.90;;;;;;4941487;28;20248;-84
2022/12/10 01:51:35;;;;;;;51.50;21.40;;;1.90;99.90;;;;;;4930882;28;20215;-84
2022/12/10 01:54:03;;;;;;;34.13;17.80;;;1.90;99.90;;;;;;4939926;28;20189;-82
2022/12/10 01:56:31;;;;;;;34.13;19.45;;;1.90;99.90;;;;;;4938184;28;20706;-83
2022/12/10 01:58:56;;;;;;;37.10;19.80;;;2.00;99.90;;;;;;4929014;28;20215;-87
2022/12/10 02:01:52;;;;;;;33.07;17.93;;;1.90;99.90;;;;;;4955668;28;20169;-82
2022/12/10 02:04:35;;;;;;;42.58;19.27;;;1.70;99.90;;;;;;4958734;28;20441;-85
2022/12/10 02:07:23;;;;;;;36.38;19.35;;;1.60;99.90;;;;;;4937492;28;20208;-84
2022/12/10 02:10:07;;;;;;;33.40;18.60;;;1.50;99.90;;;;;;4927570;28;20668;-84
2022/12/10 02:13:10;;;;;;;36.65;19.52;;;1.50;99.90;;;;;;4958311;28;20225;-85
2022/12/10 02:15:50;;;;;;;35.03;19.02;;;1.60;99.90;;;;;;4937910;28;20910;-86
2022/12/10 02:19:17;;;;;;;31.13;18.02;;;1.60;99.90;;;;;;4931884;28;20274;-85
2022/12/10 02:21:46;;;;;;;32.17;20.33;;;1.60;99.90;;;;;;4922296;28;20270;-85
2022/12/10 02:24:18;;;;;;;30.40;18.63;;;1.70;99.90;;;;;;4937853;28;20300;-85
2022/12/10 02:26:49;;;;;;;39.25;19.63;;;1.40;99.90;;;;;;4956381;28;20208;-85
2022/12/10 02:29:16;;;;;;;38.70;19.90;;;1.40;99.90;;;;;;4942076;28;20208;-83
2022/12/10 02:31:46;;;;;;;36.78;16.52;;;1.30;99.90;;;;;;4943767;28;20188;-83
2022/12/10 02:34:14;;;;;;;35.47;19.55;;;1.40;99.90;;;;;;4936820;28;20224;-84
2022/12/10 02:36:43;;;;;;;35.30;17.52;;;1.40;99.90;;;;;;4954715;28;20275;-84
2022/12/10 02:39:12;;;;;;;38.55;21.70;;;1.40;99.90;;;;;;4962844;28;20209;-85
2022/12/10 02:41:45;;;;;;;39.35;20.88;;;1.50;99.90;;;;;;4926306;28;22334;-84
2022/12/10 02:44:15;;;;;;;40.58;19.77;;;1.60;99.90;;;;;;4973635;22;20238;-87
2022/12/10 02:46:42;;;;;;;35.60;19.00;;;1.60;99.90;;;;;;4966199;28;20272;-88
2022/12/10 02:49:08;;;;;;;35.08;18.88;;;1.60;99.90;;;;;;4964375;28;20271;-88
2022/12/10 02:51:34;;;;;;;35.33;19.23;;;1.70;99.90;;;;;;4964982;28;20194;-87
2022/12/10 02:54:02;;;;;;;28.77;17.43;;;1.70;99.90;;;;;;4968420;28;20188;-87
2022/12/10 02:56:36;;;;;;;42.38;20.00;;;1.70;99.90;;;;;;4967834;28;20242;-88
2022/12/10 02:59:16;;;;;;;34.15;17.27;;;1.70;99.90;;;;;;4955215;28;20234;-88
2022/12/10 03:02:05;;;;;;;33.17;17.55;;;1.70;99.90;;;;;;4970030;28;20229;-89
2022/12/10 03:04:57;;;;;;;32.42;19.38;;;1.60;99.90;;;;;;4964984;28;20271;-88
2022/12/10 03:07:34;;;;;;;34.17;18.77;;;1.60;99.90;;;;;;4968526;28;20357;-86
2022/12/10 03:10:20;;;;;;;31.95;17.88;;;1.60;99.90;;;;;;4972431;28;20319;-88
2022/12/10 03:12:50;;;;;;;35.15;17.55;;;1.60;99.90;;;;;;4965788;28;20186;-86
2022/12/10 03:15:18;;;;;;;38.63;20.25;;;1.60;99.90;;;;;;4971127;28;20176;-88
2022/12/10 03:17:46;;;;;;;38.28;19.08;;;1.50;99.90;;;;;;4964734;28;20195;-88
2022/12/10 03:20:14;;;;;;;40.63;21.73;;;1.40;99.90;;;;;;4980812;28;20271;-88
2022/12/10 03:22:43;;;;;;;36.85;18.60;;;1.30;99.90;;;;;;4970492;28;20596;-89
2022/12/10 03:25:10;;;;;;;32.92;18.33;;;1.30;99.90;;;;;;4964114;28;20238;-86
2022/12/10 03:27:40;;;;;;;33.28;17.98;;;1.10;99.90;;;;;;4967768;28;20801;-88
2022/12/10 03:30:07;;;;;;;42.63;20.67;;;1.00;99.90;;;;;;4965523;28;20763;-89
2022/12/10 03:32:33;;;;;;;38.00;18.90;;;0.90;99.90;;;;;;4969074;28;20534;-87
2022/12/10 03:34:59;;;;;;;35.60;19.00;;;0.70;99.90;;;;;;4966879;28;20165;-89
2022/12/10 03:37:27;;;;;;;37.00;19.50;;;0.70;99.90;;;;;;4965736;28;20283;-89
2022/12/10 03:39:52;;;;;;;33.50;20.00;;;0.70;99.90;;;;;;4964221;28;22165;-87
2022/12/10 03:42:18;;;;;;;29.17;16.10;;;;;;;;;;4965010;28;20263;-87
2022/12/10 03:44:49;;;;;;;37.42;17.67;;;0.80;99.90;;;;;;4966695;28;20448;-88
2022/12/10 03:47:14;;;;;;;37.67;19.90;;;0.80;99.90;;;;;;4981401;28;20208;-88
2022/12/10 03:49:47;;;;;;;34.73;19.40;;;;;;;;;;4962243;28;20211;-84
2022/12/10 03:52:12;;;;;;;33.78;17.65;;;0.90;99.90;;;;;;4970225;28;20180;-86
2022/12/10 03:54:38;;;;;;;41.70;22.07;;;;;;;;;;4966743;28;20173;-89
2022/12/10 03:57:04;;;;;;;40.00;20.10;;;;;;;;;;4963504;28;20180;-87
2022/12/10 03:59:32;;;;;;;33.97;18.80;;;1.00;99.90;;;;;;4965950;28;20499;-89
2022/12/10 04:01:58;;;;;;;41.70;20.70;;;1.00;99.90;;;;;;4975494;28;20465;-85
2022/12/10 04:04:24;;;;;;;38.50;19.40;;;;;;;;;;4975778;28;20184;-89
2022/12/10 04:06:50;;;;;;;38.80;18.43;;;;;;;;;;4972721;28;20196;-89
2022/12/10 04:09:16;;;;;;;39.30;19.47;;;1.00;99.90;;;;;;4968295;28;20459;-88
2022/12/10 04:11:42;;;;;;;34.30;20.58;;;1.00;99.90;;;;;;4971163;28;20462;-89
2022/12/10 04:16:54;;;;;;;41.30;21.25;;;1.10;99.90;;;;;;4967885;28;20206;-87
2022/12/10 04:19:19;;;;;;;38.73;20.30;;;1.10;99.90;;;;;;4971640;28;20267;-88
2022/12/10 04:27:22;;;;;;;31.13;17.80;;;1.20;99.90;;;;;;4971633;28;21403;-88
2022/12/10 04:29:48;;;;;;;36.15;18.48;;;1.10;99.90;;;;;;4969866;28;20200;-86
2022/12/10 04:32:14;;;;;;;35.70;19.67;;;1.10;99.90;;;;;;4962382;28;20181;-87
2022/12/10 04:34:40;;;;;;;35.93;19.03;;;;;;;;;;4961447;28;20176;-88
2022/12/10 04:37:06;;;;;;;34.05;18.85;;;1.20;99.90;;;;;;4964804;28;20436;-86
2022/12/10 04:39:32;;;;;;;37.20;20.48;;;-0.60;99.90;;;;;;4967669;28;20200;-88
2022/12/10 04:41:59;;;;;;;33.17;17.33;;;1.00;99.90;;;;;;4971171;28;20195;-88
2022/12/10 04:44:25;;;;;;;39.75;21.05;;;1.00;99.90;;;;;;4969874;28;21031;-87
2022/12/10 04:46:51;;;;;;;36.03;19.47;;;;;;;;;;4967598;28;20204;-87
2022/12/10 04:49:17;;;;;;;38.70;22.67;;;;;;;;;;4970160;28;21145;-88
2022/12/10 04:51:43;;;;;;;33.53;17.87;;;0.80;99.90;;;;;;4970054;28;20471;-87
2022/12/10 04:54:09;;;;;;;42.05;18.30;;;0.90;99.90;;;;;;4971279;28;20458;-86
2022/12/10 04:56:35;;;;;;;40.15;20.42;;;1.00;99.90;;;;;;4972153;28;20596;-86
2022/12/10 04:59:02;;;;;;;37.88;19.60;;;1.10;99.90;;;;;;4973407;28;20187;-85
2022/12/10 05:01:28;;;;;;;42.35;19.73;;;1.10;99.90;;;;;;4976878;28;20216;-87
2022/12/10 05:03:54;;;;;;;40.75;19.77;;;1.10;99.90;;;;;;4976389;28;20187;-87
2022/12/10 05:06:20;;;;;;;44.10;20.37;;;1.00;99.90;;;;;;4970253;28;20187;-86
2022/12/10 05:08:47;;;;;;;40.88;18.05;;;1.00;99.90;;;;;;4976302;28;20310;-87
2022/12/10 05:11:16;;;;;;;35.63;19.33;;;1.10;99.90;;;;;;4975290;28;20183;-86
2022/12/10 05:13:42;;;;;;;33.45;19.10;;;1.20;99.90;;;;;;4980410;28;20173;-88
2022/12/10 05:16:10;;;;;;;38.78;19.58;;;1.30;99.90;;;;;;4969736;28;20165;-87
2022/12/10 05:18:36;;;;;;;43.33;21.35;;;1.30;99.90;;;;;;4969120;28;20678;-87
2022/12/10 05:21:05;;;;;;;35.58;18.83;;;1.30;99.90;;;;;;4970618;28;20184;-86
2022/12/10 05:23:32;;;;;;;35.58;18.45;;;1.30;99.90;;;;;;4969754;28;20181;-87
2022/12/10 05:26:02;;;;;;;41.33;19.60;;;1.20;99.90;;;;;;4967769;28;20563;-86
2022/12/10 05:28:28;;;;;;;34.15;19.23;;;1.30;99.90;;;;;;4968747;28;20242;-88
2022/12/10 05:30:54;;;;;;;34.47;18.05;;;1.40;99.90;;;;;;4967952;28;20180;-86
2022/12/10 05:33:22;;;;;;;41.30;19.90;;;1.40;99.90;;;;;;4965707;28;20188;-87
2022/12/10 05:35:56;;;;;;;36.03;19.90;;;1.50;99.90;;;;;;4961768;28;20172;-88
2022/12/10 05:38:22;;;;;;;33.20;18.52;;;1.50;99.90;;;;;;4970258;28;20196;-88
2022/12/10 05:40:47;;;;;;;41.30;20.30;;;1.50;99.90;;;;;;4967088;28;20202;-87
2022/12/10 05:43:13;;;;;;;38.43;19.87;;;1.40;99.90;;;;;;5017414;22;20288;-88
2022/12/10 05:45:39;;;;;;;40.30;19.60;;;;;;;;;;5021337;28;20181;-87
2022/12/10 05:48:05;;;;;;;34.13;19.20;;;1.40;99.90;;;;;;5036860;28;20177;-88
2022/12/10 05:50:32;;;;;;;38.25;19.30;;;1.20;99.90;;;;;;5037026;28;20750;-88
2022/12/10 05:52:58;;;;;;;46.05;21.50;;;;;;;;;;5036633;28;20319;-88
2022/12/10 05:55:24;;;;;;;40.67;19.80;;;0.90;99.90;;;;;;5029046;28;20177;-88
2022/12/10 05:57:50;;;;;;;38.42;20.08;;;0.80;99.90;;;;;;5038641;28;20188;-88
2022/12/10 06:00:16;;;;;;;51.23;20.80;;;;;;;;;;5025511;28;20196;-88
2022/12/10 06:02:42;;;;;;;43.00;20.97;;;;;;;;;;5035638;28;20212;-87
2022/12/10 06:05:08;;;;;;;40.87;21.77;;;;;;;;;;5016141;28;20459;-87
2022/12/10 06:07:33;;;;;;;39.80;18.42;;;0.90;99.90;;;;;;5019328;28;20467;-89
2022/12/10 06:09:59;;;;;;;43.20;21.90;;;1.00;99.90;;;;;;5024589;28;20187;-88
2022/12/10 06:12:25;;;;;;;42.10;17.73;;;1.00;99.90;;;;;;5015765;28;20240;-88
2022/12/10 06:14:51;;;;;;;43.40;20.50;;;1.10;99.90;;;;;;5019396;28;20213;-88
2022/12/10 06:17:17;;;;;;;34.83;19.17;;;;;;;;;;5031298;28;20201;-88
2022/12/10 06:19:42;;;;;;;41.37;20.73;;;1.00;99.90;;;;;;5015459;28;20728;-88
2022/12/10 06:22:08;;;;;;;37.07;19.60;;;;;;;;;;5018420;28;20494;-88
2022/12/10 06:24:34;;;;;;;43.17;18.80;;;;;;;;;;5028778;28;20209;-88
2022/12/10 06:27:00;;;;;;;44.33;21.80;;;;;;;;;;5029040;28;20602;-89
2022/12/10 06:29:26;;;;;;;38.47;19.60;;;;;;;;;;5012272;28;20464;-89
2022/12/10 06:31:52;;;;;;;34.50;18.60;;;;;;;;;;5024928;28;20544;-88
2022/12/10 06:34:18;;;;;;;38.67;20.43;;;;;;;;;;5009792;28;20477;-87
2022/12/10 06:36:44;;;;;;;34.27;19.47;;;;;;;;;;5025941;28;20450;-88
2022/12/10 06:39:09;;;;;;;34.83;18.53;;;1.30;99.90;;;;;;5011138;28;20431;-87
2022/12/10 06:41:35;;;;;;;37.00;20.00;;;1.40;99.90;;;;;;5028337;28;20574;-88
2022/12/10 06:44:01;;;;;;;37.13;18.77;;;;;;;;;;5012210;28;20226;-89
2022/12/10 06:46:28;;;;;;;53.23;20.17;;;;;;;;;;5019264;28;20346;-88
2022/12/10 06:48:54;;;;;;;37.90;19.52;;;1.40;99.90;;;;;;5029544;28;20463;-89
2022/12/10 06:51:20;;;;;;;39.53;21.07;;;;;;;;;;5016591;28;20249;-89
2022/12/10 06:53:46;;;;;;;41.03;21.48;;;1.50;99.90;;;;;;5012049;28;20197;-88
2022/12/10 06:56:14;;;;;;;41.03;20.42;;;1.50;99.90;;;;;;5017773;28;20192;-89
2022/12/10 06:58:41;;;;;;;34.60;18.35;;;1.50;99.90;;;;;;5032458;28;20559;-89
2022/12/10 07:01:14;;;;;;;33.60;18.35;;;1.40;99.90;;;;;;5034584;28;20311;-88
2022/12/10 07:03:47;;;;;;;36.15;20.58;;;1.40;99.90;;;;;;5034675;28;20217;-88
2022/12/10 07:06:12;;;;;;;36.78;20.67;;;1.40;99.90;;;;;;5034367;28;20213;-87
2022/12/10 07:08:38;;;;;;;30.20;18.30;;;1.40;99.90;;;;;;5035513;28;20261;-90
2022/12/10 07:11:10;;;;;;;42.73;20.10;;;1.30;99.90;;;;;;5018065;28;20646;-87
2022/12/10 07:13:37;;;;;;;37.65;18.48;;;1.40;99.90;;;;;;5046656;28;20482;-87
2022/12/10 07:16:03;;;;;;;39.58;21.58;;;1.40;99.90;;;;;;5027907;28;20191;-89
2022/12/10 07:18:29;;;;;;;36.93;18.97;;;;;;;;;;5028580;28;20650;-89
2022/12/10 07:20:54;;;;;;;37.22;19.63;;;1.40;99.90;;;;;;5020150;28;20431;-90
2022/12/10 07:23:20;;;;;;;36.93;17.57;;;1.40;99.90;;;;;;5024680;28;20260;-89
2022/12/10 07:25:46;;;;;;;34.20;19.27;;;1.60;99.90;;;;;;5018549;28;20443;-89
2022/12/10 07:28:12;;;;;;;32.53;18.53;;;1.50;99.90;;;;;;5025654;28;20198;-89
2022/12/10 07:30:37;;;;;;;31.67;16.83;;;1.50;99.90;;;;;;5026211;28;20177;-89
2022/12/10 07:33:04;;;;;;;34.27;18.30;;;;;;;;;;5026383;28;20540;-89
2022/12/10 07:35:29;;;;;;;35.20;19.85;;;1.60;99.90;;;;;;5037566;28;20272;-89
2022/12/10 07:37:55;;;;;;;29.17;16.47;;;;;;;;;;5028687;28;20937;-87
2022/12/10 07:40:21;;;;;;;31.53;17.03;;;;;;;;;;5022561;28;20194;-88
2022/12/10 07:42:47;;;;;;;36.97;20.10;;;;;;;;;;5025975;28;20459;-88
2022/12/10 07:45:13;;;;;;;33.33;18.70;;;;;;;;;;5026701;28;20440;-89
2022/12/10 07:47:39;;;;;;;37.90;18.80;;;;;;;;;;5035715;28;20590;-87
2022/12/10 07:50:05;;;;;;;33.43;18.23;;;1.70;99.90;;;;;;5046947;28;20433;-88
2022/12/10 07:52:31;;;;;;;35.85;18.40;;;1.40;99.90;;;;;;5036428;28;20476;-86
2022/12/10 07:54:57;;;;;;;33.90;19.20;;;;;;;;;;5022963;28;20205;-87
2022/12/10 07:57:22;;;;;;;31.83;18.13;;;1.50;99.90;;;;;;5038867;28;20261;-87
2022/12/10 07:59:48;;;;;;;34.63;18.43;;;;;;;;;;5034128;28;20451;-86
2022/12/10 08:02:14;;;;;;;31.40;18.07;;;1.80;99.90;;;;;;5032418;28;20193;-86
2022/12/10 08:04:39;;;;;;;32.30;17.30;;;1.90;99.90;;;;;;5036229;28;20542;-88
2022/12/10 08:07:07;;;;;;;34.37;19.40;;;;;;;;;;5035047;28;20219;-85
2022/12/10 08:09:33;;;;;;;31.73;17.73;;;2.00;99.90;;;;;;5007760;28;20181;-86
2022/12/10 08:11:59;;;;;;;27.15;15.25;;;;;;;;;;5011453;28;20294;-86
2022/12/10 08:14:25;;;;;;;30.10;17.13;;;;;;;;;;5007560;28;20205;-86
2022/12/10 08:16:51;;;;;;;33.33;16.83;;;;;;;;;;5016164;28;20276;-86
2022/12/10 08:19:17;;;;;;;32.50;18.83;;;;;;;;;;5012172;28;20566;-86
2022/12/10 08:21:43;;;;;;;31.37;16.80;;;;;;;;;;5007651;28;20538;-86
2022/12/10 08:24:09;;;;;;;40.85;21.77;;;;;;;;;;5022049;28;20521;-86
2022/12/10 08:26:35;;;;;;;39.00;18.25;;;2.10;99.90;;;;;;5024770;28;20240;-85
2022/12/10 08:29:01;;;;;;;30.47;18.37;;;2.30;99.90;;;;;;5025509;28;20173;-87
2022/12/10 08:31:28;;;;;;;31.73;16.60;;;2.30;99.90;;;;;;5010767;28;20177;-87
2022/12/10 08:33:54;;;;;;;29.45;16.70;;;2.30;99.90;;;;;;5016757;28;20208;-87
2022/12/10 08:36:20;;;;;;;28.38;15.88;;;2.20;99.90;;;;;;5027016;28;20182;-87
2022/12/10 08:38:46;;;;;;;40.25;17.38;;;2.30;99.90;;;;;;5028566;28;20212;-89
2022/12/10 08:41:20;;;;;;;30.83;17.47;;;2.30;99.90;;;;;;5017500;28;20276;-88
2022/12/10 08:43:47;;;;;;;33.80;17.80;;;2.00;99.90;;;;;;5034847;28;20273;-87
2022/12/10 08:46:14;;;;;;;34.63;18.08;;;2.00;99.90;;;;;;5054134;28;20320;-86
2022/12/10 08:48:40;;;;;;;34.97;16.70;;;2.10;99.90;;;;;;5033981;28;20274;-84
2022/12/10 08:51:08;;;;;;;34.30;17.77;;;2.20;99.90;;;;;;5027173;28;20183;-86
2022/12/10 08:53:34;;;;;;;32.78;17.30;;;2.40;99.90;;;;;;5036777;28;20200;-87
2022/12/10 08:56:00;;;;;;;33.38;17.33;;;2.40;99.90;;;;;;5034861;28;20169;-86
2022/12/10 08:58:26;;;;;;;32.87;17.33;;;;;;;;;;5028966;28;20211;-87
2022/12/10 09:00:52;;;;;;;33.10;18.60;;;;;;;;;;5021528;28;20439;-87
2022/12/10 09:03:18;;;;;;;35.08;19.17;;;3.00;99.90;;;;;;5028808;28;20452;-85
2022/12/10 09:05:44;;;;;;;34.07;19.50;;;;;;;;;;5024549;28;21011;-87
2022/12/10 09:08:10;;;;;;;37.40;18.38;;;2.00;99.90;;;;;;5035538;28;20228;-88
2022/12/10 09:10:37;;;;;;;37.92;20.02;;;2.00;99.90;;;;;;5029301;28;20212;-87
2022/12/10 09:13:03;;;;;;;31.17;18.77;;;2.00;99.90;;;;;;5019444;28;21154;-88
2022/12/10 09:15:29;;;;;;;38.57;19.80;;;;;;;;;;5019532;28;20268;-86
2022/12/10 09:17:54;;;;;;;34.47;16.60;;;2.10;99.90;;;;;;5032792;28;20176;-86
2022/12/10 09:20:20;;;;;;;31.30;16.87;;;;;;;;;;5026882;28;20177;-84
2022/12/10 09:22:46;;;;;;;33.67;18.10;;;;;;;;;;5021066;28;20198;-85
2022/12/10 09:25:15;;;;;;;39.33;19.80;;;;;;;;;;5028032;28;20467;-87
2022/12/10 09:27:41;;;;;;;35.08;18.02;;;2.50;99.90;;;;;;5032264;28;20494;-87
2022/12/10 09:30:07;;;;;;;30.17;16.55;;;2.60;99.90;;;;;;5032907;28;20182;-85
2022/12/10 09:32:33;;;;;;;37.75;20.05;;;2.80;99.90;;;;;;5031549;28;20670;-88
2022/12/10 09:34:58;;;;;;;39.60;16.30;;;;;;;;;;5035502;28;20243;-85
2022/12/10 09:37:24;;;;;;;30.90;16.23;;;;;;;;;;5039542;28;20200;-87
2022/12/10 09:39:50;;;;;;;28.20;16.10;;;;;;;;;;5022839;28;20523;-86
2022/12/10 09:42:29;;;;;;;26.87;15.23;;;3.10;99.90;;;;;;5029953;28;21167;-86
2022/12/10 09:45:26;;;;;;;29.13;15.70;;;3.30;99.90;;;;;;5032889;28;20470;-87
2022/12/10 09:48:06;;;;;;;37.15;18.25;;;3.30;99.90;;;;;;5033744;28;20579;-87
2022/12/10 09:51:01;;;;;;;27.25;16.75;;;3.10;99.90;;;;;;5035711;28;20170;-88
2022/12/10 09:53:29;;;;;;;36.75;16.98;;;3.10;99.90;;;;;;5036692;28;20593;-88
2022/12/10 09:55:55;;;;;;;34.88;18.23;;;3.20;99.90;;;;;;5020473;28;20178;-87
2022/12/10 09:58:23;;;;;;;32.45;18.10;;;3.30;99.90;;;;;;5035933;28;20257;-89
2022/12/10 10:00:59;;;;;;;30.48;16.58;;;3.30;99.90;;;;;;5015085;28;20666;-87
2022/12/10 10:03:25;;;;;;;27.17;15.68;;;3.50;99.90;;;;;;5026344;28;20205;-87
2022/12/10 10:05:53;;;;;;;30.40;16.70;;;3.50;99.90;;;;;;5026489;28;20949;-86
2022/12/10 10:08:38;;;;;;;29.50;18.10;;;3.50;99.90;;;;;;5036508;28;20185;-87
2022/12/10 10:11:04;;;;;;;28.33;14.55;;;3.10;99.90;;;;;;5025451;28;20537;-88
2022/12/10 10:13:43;;;;;;;24.45;14.57;;;3.00;99.90;;;;;;5027752;28;20193;-87
2022/12/10 10:16:30;;;;;;;30.65;15.40;;;2.90;99.90;;;;;;5033383;28;20185;-85
2022/12/10 10:19:01;;;;;;;31.88;16.70;;;3.10;99.90;;;;;;5053398;28;20181;-85
2022/12/10 10:21:30;;;;;;;32.10;18.05;;;3.20;99.90;;;;;;5028731;28;20658;-85
2022/12/10 10:23:56;;;;;;;30.05;16.40;;;3.50;99.90;;;;;;5035136;28;20198;-88
2022/12/10 10:26:27;;;;;;;25.73;14.73;;;3.60;99.90;;;;;;5024723;28;20707;-86
2022/12/10 10:29:00;;;;;;;26.25;13.88;;;4.00;99.90;;;;;;5026613;28;20574;-86
2022/12/10 10:31:31;;;;;;;29.13;16.35;;;3.60;99.90;;;;;;5002331;28;20177;-86
2022/12/10 10:34:03;;;;;;;30.48;16.80;;;3.50;99.90;;;;;;5024967;28;20232;-87
2022/12/10 10:36:32;;;;;;;30.08;16.92;;;3.60;99.90;;;;;;5026902;28;20182;-85
2022/12/10 10:39:09;;;;;;;25.65;14.98;;;3.40;99.90;;;;;;5046575;28;20165;-83
2022/12/10 10:41:39;;;;;;;30.33;15.30;;;3.30;99.90;;;;;;5041412;28;20542;-85
2022/12/10 10:44:21;;;;;;;31.58;15.02;;;3.20;99.90;;;;;;5041176;28;20209;-86
2022/12/10 10:46:53;;;;;;;27.27;15.57;;;3.20;99.90;;;;;;5037269;28;20197;-87
2022/12/10 10:49:26;;;;;;;30.00;15.88;;;3.20;99.90;;;;;;5017691;28;20182;-88
2022/12/10 10:51:54;;;;;;;27.80;16.30;;;3.40;99.90;;;;;;5024834;28;20505;-88
2022/12/10 10:54:40;;;;;;;24.55;13.40;;;3.40;99.90;;;;;;5033544;28;20204;-88
2022/12/10 10:57:15;;;;;;;27.58;15.15;;;3.30;99.90;;;;;;5030069;28;20296;-87
2022/12/10 10:59:41;;;;;;;31.27;16.05;;;3.50;99.90;;;;;;5026673;28;20248;-88
2022/12/10 11:02:26;;;;;;;26.30;16.92;;;3.30;99.90;;;;;;5030979;28;20189;-88
2022/12/10 11:04:54;;;;;;;24.52;14.90;;;3.30;99.90;;;;;;5015872;28;20231;-89
2022/12/10 11:07:31;;;;;;;25.02;13.65;;;3.40;99.90;;;;;;5031506;28;20197;-90
2022/12/10 11:09:58;;;;;;;27.90;15.73;;;3.40;99.90;;;;;;5036875;28;20200;-89
2022/12/10 11:12:36;;;;;;;29.15;15.77;;;3.50;99.90;;;;;;5035753;28;20567;-90
2022/12/10 11:15:21;;;;;;;25.98;14.60;;;3.50;99.90;;;;;;5018809;28;20775;-89
2022/12/10 11:17:52;;;;;;;24.08;14.10;;;3.50;99.90;;;;;;5017643;28;20192;-88
2022/12/10 11:20:30;;;;;;;26.23;14.00;;;3.30;99.90;;;;;;5024206;28;20190;-89
2022/12/10 11:22:58;;;;;;;28.58;15.40;;;3.40;99.90;;;;;;5034675;28;20184;-90
2022/12/10 11:25:37;;;;;;;28.20;16.10;;;3.40;99.90;;;;;;5036983;28;21048;-89
2022/12/10 11:28:31;;;;;;;26.88;14.65;;;3.30;99.90;;;;;;5041455;28;20228;-89
2022/12/10 11:31:19;;;;;;;27.35;13.75;;;3.40;99.90;;;;;;5022027;28;20177;-88
2022/12/10 11:33:52;;;;;;;24.65;13.68;;;3.20;99.90;;;;;;5024453;28;20203;-88
2022/12/10 11:36:54;;;;;;;21.77;13.95;;;3.20;99.90;;;;;;5015099;28;20685;-90
2022/12/10 11:39:27;;;;;;;26.73;16.05;;;3.10;99.90;;;;;;5024187;28;20208;-89
2022/12/10 11:42:13;;;;;;;23.00;13.75;;;3.20;99.90;;;;;;5025125;28;20598;-90
2022/12/10 11:45:09;;;;;;;29.15;15.52;;;3.10;99.90;;;;;;5041049;28;20674;-90
2022/12/10 11:47:52;;;;;;;26.73;14.60;;;3.10;99.90;;;;;;5032450;28;20209;-90
2022/12/10 11:50:32;;;;;;;24.58;14.45;;;2.90;99.90;;;;;;5058890;28;20170;-90
2022/12/10 11:53:26;;;;;;;29.60;16.55;;;2.90;99.90;;;;;;5052288;28;21307;-89
2022/12/10 11:56:20;;;;;;;23.35;14.27;;;2.90;99.90;;;;;;4982633;28;20205;-89
2022/12/10 11:59:12;;;;;;;27.73;17.63;;;3.00;99.90;;;;;;5022259;28;21172;-89
2022/12/10 12:02:15;;;;;;;23.50;13.50;;;2.90;99.90;;;;;;5033291;28;20202;-88
2022/12/10 12:05:23;;;;;;;28.27;17.40;;;2.70;99.90;;;;;;5030887;28;20433;-90
2022/12/10 12:08:15;;;;;;;32.67;16.63;;;2.60;99.90;;;;;;5032655;28;20296;-89
2022/12/10 12:10:48;;;;;;;29.52;16.08;;;2.60;99.90;;;;;;4995383;28;20193;-89
2022/12/10 12:13:21;;;;;;;31.95;16.15;;;2.50;99.90;;;;;;5018962;28;20197;-89
2022/12/10 12:15:54;;;;;;;26.52;14.93;;;2.60;99.90;;;;;;5024264;28;20180;-89
2022/12/10 12:18:43;;;;;;;33.75;17.63;;;2.40;99.90;;;;;;5033177;28;20174;-87
2022/12/10 12:21:11;;;;;;;28.98;16.50;;;2.60;99.90;;;;;;5025968;28;20180;-89
2022/12/10 12:23:55;;;;;;;32.28;15.95;;;2.80;99.90;;;;;;5012997;28;20206;-90
2022/12/10 12:26:53;;;;;;;28.83;16.98;;;2.80;99.90;;;;;;5036119;28;20282;-89
2022/12/10 12:29:45;;;;;;;31.98;15.93;;;3.00;99.90;;;;;;5034732;28;20173;-89
2022/12/10 12:32:35;;;;;;;37.00;16.08;;;2.90;99.90;;;;;;5012996;28;20178;-89
2022/12/10 12:35:31;;;;;;;27.38;14.85;;;2.90;99.90;;;;;;5030966;28;20198;-90
2022/12/10 12:38:20;;;;;;;29.73;15.93;;;2.80;99.90;;;;;;5025633;28;20196;-89
2022/12/10 12:40:54;;;;;;;29.95;16.33;;;2.80;99.90;;;;;;5035745;28;20227;-89
2022/12/10 12:43:25;;;;;;;26.40;14.35;;;2.80;99.90;;;;;;5032559;28;20231;-89
2022/12/10 12:45:55;;;;;;;28.50;16.20;;;2.70;99.90;;;;;;5023795;28;20651;-88
2022/12/10 12:48:46;;;;;;;31.88;15.57;;;2.60;99.90;;;;;;5019969;28;20268;-87
2022/12/10 12:51:33;;;;;;;31.80;16.08;;;2.70;99.90;;;;;;5015773;28;20182;-89
2022/12/10 12:53:58;;;;;;;31.67;15.52;;;2.60;99.90;;;;;;5030924;28;20694;-87
2022/12/10 12:56:24;;;;;;;31.50;17.10;;;;;;;;;;5023326;28;20209;-90
2022/12/10 12:59:20;;;;;;;31.92;16.40;;;2.50;99.90;;;;;;5022168;28;20181;-88
2022/12/10 13:01:56;;;;;;;27.55;12.73;;;2.40;99.90;;;;;;5030207;28;20278;-89
2022/12/10 13:04:23;;;;;;;28.45;15.30;;;2.40;99.90;;;;;;5026750;28;20239;-88
2022/12/10 13:07:24;;;;;;;33.08;17.95;;;2.30;99.90;;;;;;5023571;28;20280;-88
2022/12/10 13:10:08;;;;;;;25.48;15.13;;;2.30;99.90;;;;;;4921828;29;20594;-89
2022/12/10 13:13:16;;;;;;;34.80;17.38;;;2.20;99.90;;;;;;5019053;28;20202;-90
2022/12/10 13:15:42;;;;;;;29.17;15.43;;;2.20;99.90;;;;;;5019799;28;20691;-90
2022/12/10 13:18:10;;;;;;;30.05;15.70;;;2.00;99.90;;;;;;5027883;28;20173;-90
2022/12/10 13:20:53;;;;;;;29.52;15.75;;;1.90;99.90;;;;;;5050450;28;20158;-87